sensor_id;sensor_type;location;lat;lon;timestamp;temperature;humidity
27619;DHT22;15039;50.830;4.730;2023-06-14T00:00:03;20.90;90.60
27619;DHT22;15039;50.830;4.730;2023-06-14T00:02:29;20.70;90.80
27619;DHT22;15039;50.830;4.730;2023-06-14T00:04:55;20.60;90.80
27619;DHT22;15039;50.830;4.730;2023-06-14T00:07:37;20.60;90.80
27619;DHT22;15039;50.830;4.730;2023-06-14T00:10:04;20.60;90.90
27619;DHT22;15039;50.830;4.730;2023-06-14T00:12:30;20.50;90.80
27619;DHT22;15039;50.830;4.730;2023-06-14T00:14:57;20.40;90.90
27619;DHT22;15039;50.830;4.730;2023-06-14T00:17:22;20.40;90.90
27619;DHT22;15039;50.830;4.730;2023-06-14T00:19:48;20.40;91.10
27619;DHT22;15039;50.830;4.730;2023-06-14T00:22:14;20.30;91.00
27619;DHT22;15039;50.830;4.730;2023-06-14T00:24:40;20.20;91.10
27619;DHT22;15039;50.830;4.730;2023-06-14T00:27:06;20.30;91.20
27619;DHT22;15039;50.830;4.730;2023-06-14T00:29:32;20.20;91.40
27619;DHT22;15039;50.830;4.730;2023-06-14T00:31:58;20.10;91.50
27619;DHT22;15039;50.830;4.730;2023-06-14T00:34:23;20.10;91.60
27619;DHT22;15039;50.830;4.730;2023-06-14T00:36:49;19.90;91.70
27619;DHT22;15039;50.830;4.730;2023-06-14T00:39:15;19.90;92.00
27619;DHT22;15039;50.830;4.730;2023-06-14T00:41:40;19.90;92.20
27619;DHT22;15039;50.830;4.730;2023-06-14T00:44:06;19.90;91.90
27619;DHT22;15039;50.830;4.730;2023-06-14T00:46:32;20.00;92.00
27619;DHT22;15039;50.830;4.730;2023-06-14T00:48:58;19.90;91.90
27619;DHT22;15039;50.830;4.730;2023-06-14T00:51:26;19.70;91.90
27619;DHT22;15039;50.830;4.730;2023-06-14T00:53:53;19.60;92.10
27619;DHT22;15039;50.830;4.730;2023-06-14T00:56:18;19.60;92.30
27619;DHT22;15039;50.830;4.730;2023-06-14T00:58:46;19.70;92.00
27619;DHT22;15039;50.830;4.730;2023-06-14T01:01:13;19.70;92.10
27619;DHT22;15039;50.830;4.730;2023-06-14T01:03:39;19.60;92.30
27619;DHT22;15039;50.830;4.730;2023-06-14T01:06:15;19.50;92.50
27619;DHT22;15039;50.830;4.730;2023-06-14T01:09:18;19.50;92.50
27619;DHT22;15039;50.830;4.730;2023-06-14T01:12:07;19.40;92.50
27619;DHT22;15039;50.830;4.730;2023-06-14T01:14:38;19.40;92.40
27619;DHT22;15039;50.830;4.730;2023-06-14T01:17:04;19.40;92.40
27619;DHT22;15039;50.830;4.730;2023-06-14T01:19:30;19.30;92.50
27619;DHT22;15039;50.830;4.730;2023-06-14T01:22:01;19.30;92.80
27619;DHT22;15039;50.830;4.730;2023-06-14T01:24:27;19.30;93.00
27619;DHT22;15039;50.830;4.730;2023-06-14T01:26:55;19.20;93.10
27619;DHT22;15039;50.830;4.730;2023-06-14T01:29:23;19.20;93.30
27619;DHT22;15039;50.830;4.730;2023-06-14T01:31:50;19.20;93.40
27619;DHT22;15039;50.830;4.730;2023-06-14T01:34:16;19.10;93.60
27619;DHT22;15039;50.830;4.730;2023-06-14T01:36:44;19.10;93.60
27619;DHT22;15039;50.830;4.730;2023-06-14T01:39:14;19.00;93.50
27619;DHT22;15039;50.830;4.730;2023-06-14T01:41:41;18.90;93.60
27619;DHT22;15039;50.830;4.730;2023-06-14T01:44:08;18.90;93.90
27619;DHT22;15039;50.830;4.730;2023-06-14T01:46:35;18.80;94.00
27619;DHT22;15039;50.830;4.730;2023-06-14T01:49:01;18.80;93.60
27619;DHT22;15039;50.830;4.730;2023-06-14T01:51:27;18.90;93.40
27619;DHT22;15039;50.830;4.730;2023-06-14T01:53:53;19.10;92.90
27619;DHT22;15039;50.830;4.730;2023-06-14T01:56:19;19.20;92.50
27619;DHT22;15039;50.830;4.730;2023-06-14T01:58:45;19.00;93.00
27619;DHT22;15039;50.830;4.730;2023-06-14T02:01:11;18.90;93.20
27619;DHT22;15039;50.830;4.730;2023-06-14T02:03:38;18.80;93.60
27619;DHT22;15039;50.830;4.730;2023-06-14T02:06:04;18.70;93.40
27619;DHT22;15039;50.830;4.730;2023-06-14T02:08:29;18.70;93.20
27619;DHT22;15039;50.830;4.730;2023-06-14T02:10:55;18.70;93.10
27619;DHT22;15039;50.830;4.730;2023-06-14T02:13:21;18.70;93.10
27619;DHT22;15039;50.830;4.730;2023-06-14T02:15:46;18.80;93.00
27619;DHT22;15039;50.830;4.730;2023-06-14T02:18:16;18.80;93.30
27619;DHT22;15039;50.830;4.730;2023-06-14T02:20:42;18.70;93.30
27619;DHT22;15039;50.830;4.730;2023-06-14T02:23:07;18.80;93.00
27619;DHT22;15039;50.830;4.730;2023-06-14T02:25:33;18.80;92.90
27619;DHT22;15039;50.830;4.730;2023-06-14T02:28:01;18.70;93.00
27619;DHT22;15039;50.830;4.730;2023-06-14T02:30:27;18.60;93.60
27619;DHT22;15039;50.830;4.730;2023-06-14T02:32:52;18.60;93.70
27619;DHT22;15039;50.830;4.730;2023-06-14T02:35:18;18.40;93.90
27619;DHT22;15039;50.830;4.730;2023-06-14T02:37:49;18.30;94.00
27619;DHT22;15039;50.830;4.730;2023-06-14T02:40:16;18.30;94.30
27619;DHT22;15039;50.830;4.730;2023-06-14T02:42:42;18.30;94.40
27619;DHT22;15039;50.830;4.730;2023-06-14T02:45:08;18.20;94.10
27619;DHT22;15039;50.830;4.730;2023-06-14T02:47:34;18.20;94.30
27619;DHT22;15039;50.830;4.730;2023-06-14T02:49:59;18.20;94.50
27619;DHT22;15039;50.830;4.730;2023-06-14T02:52:25;18.10;94.70
27619;DHT22;15039;50.830;4.730;2023-06-14T02:54:51;18.10;94.70
27619;DHT22;15039;50.830;4.730;2023-06-14T02:57:16;18.10;94.80
27619;DHT22;15039;50.830;4.730;2023-06-14T02:59:42;18.00;94.90
27619;DHT22;15039;50.830;4.730;2023-06-14T03:02:07;17.90;94.90
27619;DHT22;15039;50.830;4.730;2023-06-14T03:04:36;17.80;94.90
27619;DHT22;15039;50.830;4.730;2023-06-14T03:07:03;17.70;95.10
27619;DHT22;15039;50.830;4.730;2023-06-14T03:09:37;17.70;95.30
27619;DHT22;15039;50.830;4.730;2023-06-14T03:12:06;17.60;95.40
27619;DHT22;15039;50.830;4.730;2023-06-14T03:14:33;17.80;95.30
27619;DHT22;15039;50.830;4.730;2023-06-14T03:16:58;17.70;95.40
27619;DHT22;15039;50.830;4.730;2023-06-14T03:19:26;17.60;95.50
27619;DHT22;15039;50.830;4.730;2023-06-14T03:21:52;17.60;96.00
27619;DHT22;15039;50.830;4.730;2023-06-14T03:24:19;17.60;95.70
27619;DHT22;15039;50.830;4.730;2023-06-14T03:26:45;17.60;95.60
27619;DHT22;15039;50.830;4.730;2023-06-14T03:29:11;17.60;95.80
27619;DHT22;15039;50.830;4.730;2023-06-14T03:31:41;17.50;95.80
27619;DHT22;15039;50.830;4.730;2023-06-14T03:34:06;17.50;95.70
27619;DHT22;15039;50.830;4.730;2023-06-14T03:36:32;17.40;95.80
27619;DHT22;15039;50.830;4.730;2023-06-14T03:38:59;17.40;95.80
27619;DHT22;15039;50.830;4.730;2023-06-14T03:41:24;17.50;95.80
27619;DHT22;15039;50.830;4.730;2023-06-14T03:43:51;17.50;95.90
27619;DHT22;15039;50.830;4.730;2023-06-14T03:46:17;17.50;95.90
27619;DHT22;15039;50.830;4.730;2023-06-14T03:48:43;17.50;95.90
27619;DHT22;15039;50.830;4.730;2023-06-14T03:51:08;17.40;95.70
27619;DHT22;15039;50.830;4.730;2023-06-14T03:53:35;17.50;95.90
27619;DHT22;15039;50.830;4.730;2023-06-14T03:56:01;17.50;96.00
27619;DHT22;15039;50.830;4.730;2023-06-14T03:58:27;17.50;96.00
27619;DHT22;15039;50.830;4.730;2023-06-14T04:00:53;17.40;96.00
27619;DHT22;15039;50.830;4.730;2023-06-14T04:03:19;17.50;95.90
27619;DHT22;15039;50.830;4.730;2023-06-14T04:05:45;17.50;96.10
27619;DHT22;15039;50.830;4.730;2023-06-14T04:08:14;17.50;96.10
27619;DHT22;15039;50.830;4.730;2023-06-14T04:10:41;17.50;95.90
27619;DHT22;15039;50.830;4.730;2023-06-14T04:13:07;17.50;95.90
27619;DHT22;15039;50.830;4.730;2023-06-14T04:15:32;17.50;96.00
27619;DHT22;15039;50.830;4.730;2023-06-14T04:17:59;17.50;96.10
27619;DHT22;15039;50.830;4.730;2023-06-14T04:20:24;17.60;96.10
27619;DHT22;15039;50.830;4.730;2023-06-14T04:22:51;17.60;95.90
27619;DHT22;15039;50.830;4.730;2023-06-14T04:25:18;17.60;96.00
27619;DHT22;15039;50.830;4.730;2023-06-14T04:27:44;17.70;96.00
27619;DHT22;15039;50.830;4.730;2023-06-14T04:30:12;17.80;96.10
27619;DHT22;15039;50.830;4.730;2023-06-14T04:32:38;17.80;96.10
27619;DHT22;15039;50.830;4.730;2023-06-14T04:35:06;17.90;96.00
27619;DHT22;15039;50.830;4.730;2023-06-14T04:37:35;18.00;96.00
27619;DHT22;15039;50.830;4.730;2023-06-14T04:40:05;18.20;95.80
27619;DHT22;15039;50.830;4.730;2023-06-14T04:42:32;18.20;95.90
27619;DHT22;15039;50.830;4.730;2023-06-14T04:45:00;18.10;96.00
27619;DHT22;15039;50.830;4.730;2023-06-14T04:47:27;18.10;96.10
27619;DHT22;15039;50.830;4.730;2023-06-14T04:49:59;18.20;96.10
27619;DHT22;15039;50.830;4.730;2023-06-14T04:52:28;18.20;95.80
27619;DHT22;15039;50.830;4.730;2023-06-14T04:54:55;18.30;95.70
27619;DHT22;15039;50.830;4.730;2023-06-14T04:57:21;18.40;95.50
27619;DHT22;15039;50.830;4.730;2023-06-14T04:59:49;18.50;95.30
27619;DHT22;15039;50.830;4.730;2023-06-14T05:02:23;18.50;95.10
27619;DHT22;15039;50.830;4.730;2023-06-14T05:04:50;18.70;95.10
27619;DHT22;15039;50.830;4.730;2023-06-14T05:07:16;18.80;94.90
27619;DHT22;15039;50.830;4.730;2023-06-14T05:09:42;18.90;94.80
27619;DHT22;15039;50.830;4.730;2023-06-14T05:12:08;19.00;94.70
27619;DHT22;15039;50.830;4.730;2023-06-14T05:14:34;19.00;94.70
27619;DHT22;15039;50.830;4.730;2023-06-14T05:17:00;18.90;94.60
27619;DHT22;15039;50.830;4.730;2023-06-14T05:19:26;19.00;94.70
27619;DHT22;15039;50.830;4.730;2023-06-14T05:21:52;19.00;94.90
27619;DHT22;15039;50.830;4.730;2023-06-14T05:24:18;19.10;94.90
27619;DHT22;15039;50.830;4.730;2023-06-14T05:26:44;19.30;94.70
27619;DHT22;15039;50.830;4.730;2023-06-14T05:29:10;19.40;94.40
27619;DHT22;15039;50.830;4.730;2023-06-14T05:31:36;19.40;94.60
27619;DHT22;15039;50.830;4.730;2023-06-14T05:34:01;19.50;94.70
27619;DHT22;15039;50.830;4.730;2023-06-14T05:36:27;19.50;94.40
27619;DHT22;15039;50.830;4.730;2023-06-14T05:38:53;19.60;94.40
27619;DHT22;15039;50.830;4.730;2023-06-14T05:41:26;19.60;94.50
27619;DHT22;15039;50.830;4.730;2023-06-14T05:43:53;19.70;94.40
27619;DHT22;15039;50.830;4.730;2023-06-14T05:46:20;19.60;94.70
27619;DHT22;15039;50.830;4.730;2023-06-14T05:48:49;19.80;94.40
27619;DHT22;15039;50.830;4.730;2023-06-14T05:51:15;19.90;94.20
27619;DHT22;15039;50.830;4.730;2023-06-14T05:53:53;19.90;94.30
27619;DHT22;15039;50.830;4.730;2023-06-14T05:56:20;20.00;94.40
27619;DHT22;15039;50.830;4.730;2023-06-14T05:58:53;20.20;94.70
27619;DHT22;15039;50.830;4.730;2023-06-14T06:01:31;20.70;94.00
27619;DHT22;15039;50.830;4.730;2023-06-14T06:03:59;21.30;93.10
27619;DHT22;15039;50.830;4.730;2023-06-14T06:06:24;21.90;92.00
27619;DHT22;15039;50.830;4.730;2023-06-14T06:08:50;22.30;91.60
27619;DHT22;15039;50.830;4.730;2023-06-14T06:11:16;22.80;91.30
27619;DHT22;15039;50.830;4.730;2023-06-14T06:13:43;23.20;90.80
27619;DHT22;15039;50.830;4.730;2023-06-14T06:16:11;23.70;90.20
27619;DHT22;15039;50.830;4.730;2023-06-14T06:18:37;24.10;89.50
27619;DHT22;15039;50.830;4.730;2023-06-14T06:21:04;24.50;88.00
27619;DHT22;15039;50.830;4.730;2023-06-14T06:23:31;24.30;88.30
27619;DHT22;15039;50.830;4.730;2023-06-14T06:25:57;24.60;87.10
27619;DHT22;15039;50.830;4.730;2023-06-14T06:28:52;24.90;87.00
27619;DHT22;15039;50.830;4.730;2023-06-14T06:31:18;25.20;86.80
27619;DHT22;15039;50.830;4.730;2023-06-14T06:33:44;24.80;86.10
27619;DHT22;15039;50.830;4.730;2023-06-14T06:36:21;25.00;85.90
27619;DHT22;15039;50.830;4.730;2023-06-14T06:38:47;25.00;85.70
27619;DHT22;15039;50.830;4.730;2023-06-14T06:41:13;25.20;85.50
27619;DHT22;15039;50.830;4.730;2023-06-14T06:43:39;25.00;85.70
27619;DHT22;15039;50.830;4.730;2023-06-14T06:46:05;24.70;85.50
27619;DHT22;15039;50.830;4.730;2023-06-14T06:48:34;24.50;86.60
27619;DHT22;15039;50.830;4.730;2023-06-14T06:51:01;24.40;87.00
27619;DHT22;15039;50.830;4.730;2023-06-14T06:53:27;24.30;86.70
27619;DHT22;15039;50.830;4.730;2023-06-14T06:55:56;24.30;87.60
27619;DHT22;15039;50.830;4.730;2023-06-14T06:58:21;23.80;87.90
27619;DHT22;15039;50.830;4.730;2023-06-14T07:00:51;23.60;89.00
27619;DHT22;15039;50.830;4.730;2023-06-14T07:03:17;23.50;88.50
27619;DHT22;15039;50.830;4.730;2023-06-14T07:05:43;23.40;88.60
27619;DHT22;15039;50.830;4.730;2023-06-14T07:08:11;23.00;89.20
27619;DHT22;15039;50.830;4.730;2023-06-14T07:10:37;23.10;89.70
27619;DHT22;15039;50.830;4.730;2023-06-14T07:13:03;23.10;89.90
27619;DHT22;15039;50.830;4.730;2023-06-14T07:15:59;23.00;90.10
27619;DHT22;15039;50.830;4.730;2023-06-14T07:18:27;23.00;90.70
27619;DHT22;15039;50.830;4.730;2023-06-14T07:20:53;23.00;90.10
27619;DHT22;15039;50.830;4.730;2023-06-14T07:23:20;23.10;90.30
27619;DHT22;15039;50.830;4.730;2023-06-14T07:25:46;23.10;90.50
27619;DHT22;15039;50.830;4.730;2023-06-14T07:28:11;23.20;90.20
27619;DHT22;15039;50.830;4.730;2023-06-14T07:30:37;23.10;90.30
27619;DHT22;15039;50.830;4.730;2023-06-14T07:33:03;23.20;90.00
27619;DHT22;15039;50.830;4.730;2023-06-14T07:35:28;23.30;90.30
27619;DHT22;15039;50.830;4.730;2023-06-14T07:37:54;23.40;90.60
27619;DHT22;15039;50.830;4.730;2023-06-14T07:40:20;23.50;90.40
27619;DHT22;15039;50.830;4.730;2023-06-14T07:42:46;23.60;90.00
27619;DHT22;15039;50.830;4.730;2023-06-14T07:45:13;23.70;89.60
27619;DHT22;15039;50.830;4.730;2023-06-14T07:47:39;23.70;89.00
27619;DHT22;15039;50.830;4.730;2023-06-14T07:50:05;23.80;89.90
27619;DHT22;15039;50.830;4.730;2023-06-14T07:52:31;23.70;89.80
27619;DHT22;15039;50.830;4.730;2023-06-14T07:54:57;23.70;89.20
27619;DHT22;15039;50.830;4.730;2023-06-14T07:57:23;23.80;90.00
27619;DHT22;15039;50.830;4.730;2023-06-14T07:59:49;23.90;90.10
27619;DHT22;15039;50.830;4.730;2023-06-14T08:02:16;24.10;89.40
27619;DHT22;15039;50.830;4.730;2023-06-14T08:04:42;24.00;89.00
27619;DHT22;15039;50.830;4.730;2023-06-14T08:07:08;24.00;88.70
27619;DHT22;15039;50.830;4.730;2023-06-14T08:09:35;24.20;89.90
27619;DHT22;15039;50.830;4.730;2023-06-14T08:12:06;24.10;89.80
27619;DHT22;15039;50.830;4.730;2023-06-14T08:14:36;24.30;90.00
27619;DHT22;15039;50.830;4.730;2023-06-14T08:17:01;24.40;90.20
27619;DHT22;15039;50.830;4.730;2023-06-14T08:19:27;24.30;90.00
27619;DHT22;15039;50.830;4.730;2023-06-14T08:21:53;24.30;89.00
27619;DHT22;15039;50.830;4.730;2023-06-14T08:24:23;24.40;90.00
27619;DHT22;15039;50.830;4.730;2023-06-14T08:26:55;24.50;89.60
27619;DHT22;15039;50.830;4.730;2023-06-14T08:29:21;24.60;89.40
27619;DHT22;15039;50.830;4.730;2023-06-14T08:31:47;24.70;90.10
27619;DHT22;15039;50.830;4.730;2023-06-14T08:34:13;24.70;90.10
27619;DHT22;15039;50.830;4.730;2023-06-14T08:36:38;24.70;90.00
27619;DHT22;15039;50.830;4.730;2023-06-14T08:39:05;24.70;88.40
27619;DHT22;15039;50.830;4.730;2023-06-14T08:41:31;24.60;87.50
27619;DHT22;15039;50.830;4.730;2023-06-14T08:43:58;24.70;88.20
27619;DHT22;15039;50.830;4.730;2023-06-14T08:46:26;24.80;88.20
27619;DHT22;15039;50.830;4.730;2023-06-14T08:48:55;24.80;89.40
27619;DHT22;15039;50.830;4.730;2023-06-14T08:51:22;24.80;88.60
27619;DHT22;15039;50.830;4.730;2023-06-14T08:53:54;24.80;88.80
27619;DHT22;15039;50.830;4.730;2023-06-14T08:56:27;24.80;88.60
27619;DHT22;15039;50.830;4.730;2023-06-14T08:58:58;24.90;87.70
27619;DHT22;15039;50.830;4.730;2023-06-14T09:01:26;25.00;87.00
27619;DHT22;15039;50.830;4.730;2023-06-14T09:03:52;24.80;86.30
27619;DHT22;15039;50.830;4.730;2023-06-14T09:06:21;24.70;86.10
27619;DHT22;15039;50.830;4.730;2023-06-14T09:08:48;24.40;87.70
27619;DHT22;15039;50.830;4.730;2023-06-14T09:11:16;24.40;87.60
27619;DHT22;15039;50.830;4.730;2023-06-14T09:13:44;24.50;88.50
27619;DHT22;15039;50.830;4.730;2023-06-14T09:16:11;24.60;87.50
27619;DHT22;15039;50.830;4.730;2023-06-14T09:18:41;24.70;87.10
27619;DHT22;15039;50.830;4.730;2023-06-14T09:21:14;24.60;87.30
27619;DHT22;15039;50.830;4.730;2023-06-14T09:23:47;24.80;87.90
27619;DHT22;15039;50.830;4.730;2023-06-14T09:26:19;24.90;85.90
27619;DHT22;15039;50.830;4.730;2023-06-14T09:29:05;24.90;86.20
27619;DHT22;15039;50.830;4.730;2023-06-14T09:31:43;25.00;84.10
27619;DHT22;15039;50.830;4.730;2023-06-14T09:34:12;25.10;83.60
27619;DHT22;15039;50.830;4.730;2023-06-14T09:36:49;25.00;83.50
27619;DHT22;15039;50.830;4.730;2023-06-14T09:39:19;25.00;83.40
27619;DHT22;15039;50.830;4.730;2023-06-14T09:41:45;25.10;84.20
27619;DHT22;15039;50.830;4.730;2023-06-14T09:44:12;25.10;83.00
27619;DHT22;15039;50.830;4.730;2023-06-14T09:46:38;25.10;83.00
27619;DHT22;15039;50.830;4.730;2023-06-14T09:49:04;25.00;83.60
27619;DHT22;15039;50.830;4.730;2023-06-14T09:51:31;25.00;84.00
27619;DHT22;15039;50.830;4.730;2023-06-14T09:54:01;25.10;84.70
27619;DHT22;15039;50.830;4.730;2023-06-14T09:56:38;25.10;84.00
27619;DHT22;15039;50.830;4.730;2023-06-14T09:59:10;25.10;83.80
27619;DHT22;15039;50.830;4.730;2023-06-14T10:01:40;25.30;84.20
27619;DHT22;15039;50.830;4.730;2023-06-14T10:04:07;25.40;84.80
27619;DHT22;15039;50.830;4.730;2023-06-14T10:06:36;25.50;85.10
27619;DHT22;15039;50.830;4.730;2023-06-14T10:09:04;25.60;84.60
27619;DHT22;15039;50.830;4.730;2023-06-14T10:11:31;25.70;83.30
27619;DHT22;15039;50.830;4.730;2023-06-14T10:13:58;25.80;84.40
27619;DHT22;15039;50.830;4.730;2023-06-14T10:16:31;25.90;83.50
27619;DHT22;15039;50.830;4.730;2023-06-14T10:19:29;25.80;82.00
27619;DHT22;15039;50.830;4.730;2023-06-14T10:22:23;25.80;82.70
27619;DHT22;15039;50.830;4.730;2023-06-14T10:24:50;26.00;80.00
27619;DHT22;15039;50.830;4.730;2023-06-14T10:27:16;25.90;80.00
27619;DHT22;15039;50.830;4.730;2023-06-14T10:32:26;26.00;79.20
27619;DHT22;15039;50.830;4.730;2023-06-14T10:37:23;26.00;82.60
27619;DHT22;15039;50.830;4.730;2023-06-14T10:39:50;26.20;80.60
27619;DHT22;15039;50.830;4.730;2023-06-14T10:42:16;26.10;81.10
27619;DHT22;15039;50.830;4.730;2023-06-14T10:44:45;26.20;81.30
27619;DHT22;15039;50.830;4.730;2023-06-14T10:49:54;26.50;80.20
27619;DHT22;15039;50.830;4.730;2023-06-14T10:52:28;26.50;80.50
27619;DHT22;15039;50.830;4.730;2023-06-14T10:55:08;26.70;79.10
27619;DHT22;15039;50.830;4.730;2023-06-14T10:57:51;26.40;77.80
27619;DHT22;15039;50.830;4.730;2023-06-14T11:00:20;26.50;76.80
27619;DHT22;15039;50.830;4.730;2023-06-14T11:05:58;26.80;77.00
27619;DHT22;15039;50.830;4.730;2023-06-14T11:11:32;27.00;77.00
27619;DHT22;15039;50.830;4.730;2023-06-14T11:14:01;26.80;77.00
27619;DHT22;15039;50.830;4.730;2023-06-14T11:16:28;26.70;75.40
27619;DHT22;15039;50.830;4.730;2023-06-14T11:18:54;26.50;76.30
27619;DHT22;15039;50.830;4.730;2023-06-14T11:21:20;26.50;77.00
27619;DHT22;15039;50.830;4.730;2023-06-14T11:23:52;26.60;77.00
27619;DHT22;15039;50.830;4.730;2023-06-14T11:26:27;26.60;75.30
27619;DHT22;15039;50.830;4.730;2023-06-14T11:28:58;26.50;76.60
27619;DHT22;15039;50.830;4.730;2023-06-14T11:31:24;26.70;77.40
27619;DHT22;15039;50.830;4.730;2023-06-14T11:33:51;26.90;76.00
27619;DHT22;15039;50.830;4.730;2023-06-14T11:36:18;27.00;75.90
27619;DHT22;15039;50.830;4.730;2023-06-14T11:38:44;27.10;75.70
27619;DHT22;15039;50.830;4.730;2023-06-14T11:41:09;27.10;76.90
27619;DHT22;15039;50.830;4.730;2023-06-14T11:43:35;27.10;76.80
27619;DHT22;15039;50.830;4.730;2023-06-14T11:46:01;27.10;76.60
27619;DHT22;15039;50.830;4.730;2023-06-14T11:48:38;27.10;76.70
27619;DHT22;15039;50.830;4.730;2023-06-14T11:51:04;27.00;77.60
27619;DHT22;15039;50.830;4.730;2023-06-14T11:53:30;26.90;76.00
27619;DHT22;15039;50.830;4.730;2023-06-14T11:55:57;26.80;76.40
27619;DHT22;15039;50.830;4.730;2023-06-14T11:58:22;26.70;75.10
27619;DHT22;15039;50.830;4.730;2023-06-14T12:00:52;26.60;77.60
27619;DHT22;15039;50.830;4.730;2023-06-14T12:03:23;26.60;75.90
27619;DHT22;15039;50.830;4.730;2023-06-14T12:06:01;26.70;76.00
27619;DHT22;15039;50.830;4.730;2023-06-14T12:08:33;26.80;76.60
27619;DHT22;15039;50.830;4.730;2023-06-14T12:11:04;26.80;76.80
27619;DHT22;15039;50.830;4.730;2023-06-14T12:13:29;26.80;75.00
27619;DHT22;15039;50.830;4.730;2023-06-14T12:15:58;26.70;75.40
27619;DHT22;15039;50.830;4.730;2023-06-14T12:18:35;26.70;75.30
27619;DHT22;15039;50.830;4.730;2023-06-14T12:21:01;26.90;75.10
27619;DHT22;15039;50.830;4.730;2023-06-14T12:23:39;27.00;74.80
27619;DHT22;15039;50.830;4.730;2023-06-14T12:26:04;27.00;75.40
27619;DHT22;15039;50.830;4.730;2023-06-14T12:28:31;27.10;76.00
27619;DHT22;15039;50.830;4.730;2023-06-14T12:30:57;27.40;73.90
27619;DHT22;15039;50.830;4.730;2023-06-14T12:33:24;27.20;73.80
27619;DHT22;15039;50.830;4.730;2023-06-14T12:35:50;27.10;73.50
27619;DHT22;15039;50.830;4.730;2023-06-14T12:38:18;26.90;72.50
27619;DHT22;15039;50.830;4.730;2023-06-14T12:40:43;26.80;73.20
27619;DHT22;15039;50.830;4.730;2023-06-14T12:43:09;26.70;73.40
27619;DHT22;15039;50.830;4.730;2023-06-14T12:45:34;26.90;73.60
27619;DHT22;15039;50.830;4.730;2023-06-14T12:48:00;27.10;74.40
27619;DHT22;15039;50.830;4.730;2023-06-14T12:50:25;27.30;72.20
27619;DHT22;15039;50.830;4.730;2023-06-14T12:52:51;27.30;72.80
27619;DHT22;15039;50.830;4.730;2023-06-14T12:55:17;27.30;73.10
27619;DHT22;15039;50.830;4.730;2023-06-14T12:57:46;27.10;72.10
27619;DHT22;15039;50.830;4.730;2023-06-14T13:00:15;26.90;71.80
27619;DHT22;15039;50.830;4.730;2023-06-14T13:02:41;26.80;73.50
27619;DHT22;15039;50.830;4.730;2023-06-14T13:05:06;27.10;74.50
27619;DHT22;15039;50.830;4.730;2023-06-14T13:07:32;27.10;73.40
27619;DHT22;15039;50.830;4.730;2023-06-14T13:09:59;27.10;71.00
27619;DHT22;15039;50.830;4.730;2023-06-14T13:12:25;27.10;72.40
27619;DHT22;15039;50.830;4.730;2023-06-14T13:14:50;27.20;72.30
27619;DHT22;15039;50.830;4.730;2023-06-14T13:17:16;27.30;70.10
27619;DHT22;15039;50.830;4.730;2023-06-14T13:19:41;27.30;72.00
27619;DHT22;15039;50.830;4.730;2023-06-14T13:22:10;27.10;70.00
27619;DHT22;15039;50.830;4.730;2023-06-14T13:24:36;26.90;71.10
27619;DHT22;15039;50.830;4.730;2023-06-14T13:27:01;26.90;71.40
27619;DHT22;15039;50.830;4.730;2023-06-14T13:29:27;26.90;69.70
27619;DHT22;15039;50.830;4.730;2023-06-14T13:31:53;26.90;69.50
27619;DHT22;15039;50.830;4.730;2023-06-14T13:34:19;26.90;71.10
27619;DHT22;15039;50.830;4.730;2023-06-14T13:36:45;27.10;71.90
27619;DHT22;15039;50.830;4.730;2023-06-14T13:39:11;27.30;70.10
27619;DHT22;15039;50.830;4.730;2023-06-14T13:41:37;27.50;69.80
27619;DHT22;15039;50.830;4.730;2023-06-14T13:44:03;27.60;70.60
27619;DHT22;15039;50.830;4.730;2023-06-14T13:46:31;27.80;70.20
27619;DHT22;15039;50.830;4.730;2023-06-14T13:48:57;27.70;69.60
27619;DHT22;15039;50.830;4.730;2023-06-14T13:51:23;27.70;69.10
27619;DHT22;15039;50.830;4.730;2023-06-14T13:53:49;27.60;70.00
27619;DHT22;15039;50.830;4.730;2023-06-14T13:56:16;27.40;68.00
27619;DHT22;15039;50.830;4.730;2023-06-14T13:58:42;27.30;69.00
27619;DHT22;15039;50.830;4.730;2023-06-14T14:01:09;27.30;69.70
27619;DHT22;15039;50.830;4.730;2023-06-14T14:03:35;27.40;68.60
27619;DHT22;15039;50.830;4.730;2023-06-14T14:06:01;27.50;70.20
27619;DHT22;15039;50.830;4.730;2023-06-14T14:08:27;27.50;69.00
27619;DHT22;15039;50.830;4.730;2023-06-14T14:10:53;27.60;68.90
27619;DHT22;15039;50.830;4.730;2023-06-14T14:13:20;27.80;69.20
27619;DHT22;15039;50.830;4.730;2023-06-14T14:15:46;28.00;68.60
27619;DHT22;15039;50.830;4.730;2023-06-14T14:18:12;28.30;69.40
27619;DHT22;15039;50.830;4.730;2023-06-14T14:20:38;28.10;67.30
27619;DHT22;15039;50.830;4.730;2023-06-14T14:23:03;27.70;68.10
27619;DHT22;15039;50.830;4.730;2023-06-14T14:25:29;27.50;67.70
27619;DHT22;15039;50.830;4.730;2023-06-14T14:27:55;27.30;68.90
27619;DHT22;15039;50.830;4.730;2023-06-14T14:30:21;27.50;70.50
27619;DHT22;15039;50.830;4.730;2023-06-14T14:32:49;27.50;68.70
27619;DHT22;15039;50.830;4.730;2023-06-14T14:35:16;27.60;69.20
27619;DHT22;15039;50.830;4.730;2023-06-14T14:37:43;27.50;68.80
27619;DHT22;15039;50.830;4.730;2023-06-14T14:40:09;27.60;69.50
27619;DHT22;15039;50.830;4.730;2023-06-14T14:42:35;27.50;70.60
27619;DHT22;15039;50.830;4.730;2023-06-14T14:45:01;27.60;70.80
27619;DHT22;15039;50.830;4.730;2023-06-14T14:47:27;27.60;68.00
27619;DHT22;15039;50.830;4.730;2023-06-14T14:49:52;27.60;69.40
27619;DHT22;15039;50.830;4.730;2023-06-14T14:52:18;27.30;69.90
27619;DHT22;15039;50.830;4.730;2023-06-14T14:54:43;27.20;70.60
27619;DHT22;15039;50.830;4.730;2023-06-14T14:57:10;27.20;70.60
27619;DHT22;15039;50.830;4.730;2023-06-14T14:59:36;27.50;70.80
27619;DHT22;15039;50.830;4.730;2023-06-14T15:02:02;27.50;69.70
27619;DHT22;15039;50.830;4.730;2023-06-14T15:04:28;27.50;69.90
27619;DHT22;15039;50.830;4.730;2023-06-14T15:06:53;27.60;70.00
27619;DHT22;15039;50.830;4.730;2023-06-14T15:09:19;27.60;69.80
27619;DHT22;15039;50.830;4.730;2023-06-14T15:11:45;27.70;69.20
27619;DHT22;15039;50.830;4.730;2023-06-14T15:14:10;27.90;70.20
27619;DHT22;15039;50.830;4.730;2023-06-14T15:16:36;27.90;69.20
27619;DHT22;15039;50.830;4.730;2023-06-14T15:19:02;28.00;70.20
27619;DHT22;15039;50.830;4.730;2023-06-14T15:21:27;27.90;68.20
27619;DHT22;15039;50.830;4.730;2023-06-14T15:23:53;27.70;69.10
27619;DHT22;15039;50.830;4.730;2023-06-14T15:26:19;27.90;68.90
27619;DHT22;15039;50.830;4.730;2023-06-14T15:28:45;27.80;70.00
27619;DHT22;15039;50.830;4.730;2023-06-14T15:31:11;27.90;69.60
27619;DHT22;15039;50.830;4.730;2023-06-14T15:33:36;27.80;70.80
27619;DHT22;15039;50.830;4.730;2023-06-14T15:36:02;27.70;71.30
27619;DHT22;15039;50.830;4.730;2023-06-14T15:38:28;27.70;70.70
27619;DHT22;15039;50.830;4.730;2023-06-14T15:40:54;27.80;71.80
27619;DHT22;15039;50.830;4.730;2023-06-14T15:43:20;28.00;72.30
27619;DHT22;15039;50.830;4.730;2023-06-14T15:45:45;28.10;71.40